Etusivu
METAR-TAF:

METAR-TAF

Lentoasemat :

Linköpingin lentoasema

Linköping, Ruotsi

Leveyspiiri: 58-24N, Pituuspiiri: 015-41E, korkeus merenpinnasta: 52 m

Tämänhetkinen sää

Tämä raportti tehtiin 14 minuuttia sitten, kello 18.20 UTC
Tuuli 7 kn idästä/koillisesta
Lämpötila 2°C
Kosteus 87%
Ilmanpaine 1037 hPa
Näkyvyys 10 km tai enemmän
Hajonneita pilviä 1400 ft:n korkeudessa

METAR: ESSL 191820Z 06007KT 9999 BKN014 02/M00 Q1037

Aika: 19:34 (18:34 UTC)

Sääennuste

Tämä raportti tehtiin 1 tunti ja 4 minuuttia sitten, kello 17.30 UTC
Ennuste voimassa 19. päivästä klo 18 UTC - 19. päivään klo 23 UTC
Tuuli 7 kn koillisesta
Näkyvyys 10 km tai enemmän
Hajonneita pilviä 1800 ft:n korkeudessa

TAF: ESSL 191730Z 1918/1923 05007KT 9999 BKN018

Säähavainnot ja -ennusteet yli 4000 lentoasemalta (METAR- ja TAF-raportit).

Käytössä olevat sääasemat on merkitty karttaan keltaisilla ja punaisilla pisteillä.

Aseta hiiri pisteen päälle nähdäksesi sääaseman nimen.

Klikkaa sitten nähdäksesi säähavainnot ja -ennusteet.

Kartan vaihtaminen: klikkaa mustalla rastilla varustettuja vihreitä pisteitä, niin voit zoomata sisään; viivalla varustettua vihreää pistettä, niin voit zoomata ulos tai vihreitä nuolia, niin pääset viereisille kartoille.


METAR-TAF: